Ride Results

Black Bluff Gordon Williams Memorial (15-11-2008)
Ride distance: 80.0 km

Outcomes - Black Bluff Gordon Williams Memorial (15-11-2008)
Division No. of Entries Retired / DNE Completed Withdrawn Ineligible V/O Percentage Completed
HW 5 - 3 1 - 1 60.00%
MW 15 - 9 - - 6 60.00%
LW 11 - 10 - - 1 90.91%
JN 4 - 4 - - - 100.00%
Totals 35 - 26 1 - 8 74.29%
Results - Black Bluff Gordon Williams Memorial (15-11-2008)
No. Rider Horse Place Time Leg Speeds Total
Km/Hr
H/R bpm
Heavyweight
45 Denise Williams Valley Springs Summer Haze 1 5:08:00 16.3, 14.9 15.58 34, 51, 56 (Avg:53)
70 Allan Wyllie Tonki Dee Boo Felicity 2 6:07:00 13.2, 12.9 13.08 50, 42, 45 (Avg:43)
27 Dennis Foley Jnr Wild 3 6:08:00 12.9, 13.1 13.04 34, 43, 46 (Avg:44)
140 Stuart King Alcheringa Shopanii Withdrawn L1 0:00:00 - - 36, 55 (Avg:55)
141 Tim Potter Militar El Dorado Lame L1 0:00:00 9.3 - 40, 51 (Avg:51)
Middleweight
132 Carolyn Foley-Jones Valley Park My Solotaire 1 4:24:00 18.6, 17.7 18.18 37, 43, 45 (Avg:44)
194 Thomas Wilde Aloha Zetoile 1 4:24:00 18.6, 17.7 18.18 52, 49, 5 (Avg:27)
57 Tania Jago River Gum Bounty 3 5:40:00 13.9, 14.2 14.12 38, 50, 51 (Avg:50)
69 Tracey Wyllie At Cash 4 6:08:00 12.9, 13.1 13.04 40, 44, 49 (Avg:46)
42 Dianne Walsh Rowallan Majestic 5 6:10:00 12.5, 13.4 12.97 38, 50, 53 (Avg:51)
30 Karyn Holden Bar-K Howie 6 6:21:00 12.6, 12.5 12.60 36, 49, 59 (Avg:54)
43 Bonny Burgess Rythem 7 6:34:00 12.3, 11.9 12.18 39, 43, 51 (Avg:47)
102 Keryn Mahoney Sarisha 8 6:49:00 12.3, 11.1 11.74 34, 41, 55 (Avg:48)
187 Casey Hayes Oska 9 7:05:00 11.8, 10.8 11.29 42, 47, 49 (Avg:48)
191 Coby Cunnington Ausden Anastacia Lame L2 0:00:00 13.2, 12.7 - 48, 51, 53 (Avg:52)
18 Sheleah Astell Auscot Park Storm Heart Rate L1 0:00:00 13.2 - 62, 60 (Avg:60)
189 Christine Brown AP Sioux City Dancer Back L1 0:00:00 13.2 - 34, 50 (Avg:50)
41 Andrew Driscoll Davlyn Park Pegasus Lame L1 0:00:00 12.3 - 40, 40 (Avg:40)
130 Shane Flint Yarraman Heart Rate L1 0:00:00 12.8 - 38, 64 (Avg:64)
40 Keren Wilde Highland View St Chris Lame L1 0:00:00 18.6 - 39, 44 (Avg:44)
Lightweight
185 Jessica Aistrope Highland View Kelandi 1 4:59:00 18.6, 14.1 16.05 31, 44, 47 (Avg:45)
193 Jeremy Robertson Pilaman 2 5:08:00 15.0, 16.1 15.58 37, 44, 48 (Avg:46)
136 Kaye Mitchell Glanheathyn Whistler 3 5:41:00 13.8, 14.2 14.08 37, 45, 48 (Avg:46)
81 Alison Simpson Sandine Balgriffen 3 5:41:00 13.8, 14.2 14.08 38, 45, 55 (Avg:50)
19 Sonia Hodgetts Millennium Star 5 5:55:00 13.9, 13.1 13.52 42, 54, 60 (Avg:57)
77 Alison Lockhart Sandine Allure 6 6:03:00 13.2, 13.1 13.22 42, 55, 55 (Avg:55)
12 Anita Hutchins Malricia Jess 7 6:11:00 12.6, 13.1 12.94 36, 42, 47 (Avg:44)
138 Kristen Robertson Resolution 8 6:11:40 12.8, 12.9 12.91 42, 48, 52 (Avg:50)
1 Ann Richards Teco 9 6:49:00 12.3, 11.1 11.74 48, 49, 49 (Avg:49)
188 Phoebe Harper Banks DVS Bresindha 10 7:05:00 11.8, 10.8 11.29 46, 46, 52 (Avg:49)
83 Angie Clark Cameo Fireworks Heart Rate L1 0:00:00 15.9 - 40, 74 (Avg:74)
Junior
78 Brad Hill Lockleigh Park Star 1 6:03:00 13.2, 13.1 13.22 39, 53, 47 (Avg:50)
186 Stuart Becker Dial Range Shard 2 6:09:00 13.2, 12.7 13.01 4, 42, 53 (Avg:47)
74 Jaz Hutchins Golden Karinya 3 6:11:00 12.6, 13.1 12.94 37, 48, 52 (Avg:50)
190 Tia Cunnington Wattles Marcelle 4 6:12:00 13.2, 12.5 12.90 37, 49, 52 (Avg:50)